sensor_id;sensor_type;location;lat;lon;timestamp;pressure;altitude;pressure_sealevel;temperature;humidity
23223;BME280;11780;13.904;100.620;2024-02-21T00:01:01;101078.16;;;31.53;67.54
23223;BME280;11780;13.904;100.620;2024-02-21T00:03:32;101081.91;;;31.57;67.74
23223;BME280;11780;13.904;100.620;2024-02-21T00:06:03;101087.28;;;31.54;67.47
23223;BME280;11780;13.904;100.620;2024-02-21T00:08:33;101077.84;;;31.55;67.83
23223;BME280;11780;13.904;100.620;2024-02-21T00:11:04;101088.25;;;31.49;67.65
23223;BME280;11780;13.904;100.620;2024-02-21T00:13:35;101094.28;;;31.51;67.57
23223;BME280;11780;13.904;100.620;2024-02-21T00:16:05;101095.09;;;31.52;67.42
23223;BME280;11780;13.904;100.620;2024-02-21T00:18:36;101101.09;;;31.54;67.48
23223;BME280;11780;13.904;100.620;2024-02-21T00:21:07;101099.16;;;31.54;67.70
23223;BME280;11780;13.904;100.620;2024-02-21T00:23:37;101103.03;;;31.53;67.43
23223;BME280;11780;13.904;100.620;2024-02-21T00:26:08;101103.88;;;31.54;67.28
23223;BME280;11780;13.904;100.620;2024-02-21T00:28:38;101113.31;;;31.53;67.58
23223;BME280;11780;13.904;100.620;2024-02-21T00:31:10;101114.94;;;31.54;67.48
23223;BME280;11780;13.904;100.620;2024-02-21T00:33:41;101116.56;;;31.55;67.45
23223;BME280;11780;13.904;100.620;2024-02-21T00:36:11;101119.63;;;31.53;67.53
23223;BME280;11780;13.904;100.620;2024-02-21T00:38:42;101118.84;;;31.53;67.62
23223;BME280;11780;13.904;100.620;2024-02-21T00:41:13;101119.63;;;31.53;67.84
23223;BME280;11780;13.904;100.620;2024-02-21T00:43:43;101128.25;;;31.52;67.64
23223;BME280;11780;13.904;100.620;2024-02-21T00:46:14;101123.56;;;31.52;67.71
23223;BME280;11780;13.904;100.620;2024-02-21T00:48:44;101127.94;;;31.53;67.59
23223;BME280;11780;13.904;100.620;2024-02-21T00:51:16;101132.66;;;31.53;67.74
23223;BME280;11780;13.904;100.620;2024-02-21T00:53:47;101135.41;;;31.53;67.70
23223;BME280;11780;13.904;100.620;2024-02-21T00:56:17;101132.16;;;31.51;67.68
23223;BME280;11780;13.904;100.620;2024-02-21T00:58:48;101142.09;;;31.52;68.09
23223;BME280;11780;13.904;100.620;2024-02-21T01:01:23;101134.63;;;31.52;67.82
23223;BME280;11780;13.904;100.620;2024-02-21T01:03:54;101143.22;;;31.51;68.13
23223;BME280;11780;13.904;100.620;2024-02-21T01:06:26;101144.84;;;31.52;68.17
23223;BME280;11780;13.904;100.620;2024-02-21T01:08:57;101146.47;;;31.53;67.96
23223;BME280;11780;13.904;100.620;2024-02-21T01:11:28;101151.69;;;31.54;67.66
23223;BME280;11780;13.904;100.620;2024-02-21T01:13:58;101151.38;;;31.56;67.93
23223;BME280;11780;13.904;100.620;2024-02-21T01:16:29;101153.81;;;31.57;68.11
23223;BME280;11780;13.904;100.620;2024-02-21T01:18:59;101155.78;;;31.57;67.70
23223;BME280;11780;13.904;100.620;2024-02-21T01:21:30;101158.34;;;31.53;67.91
23223;BME280;11780;13.904;100.620;2024-02-21T01:24:01;101150.53;;;31.55;68.08
23223;BME280;11780;13.904;100.620;2024-02-21T01:26:31;101149.91;;;31.58;67.77
23223;BME280;11780;13.904;100.620;2024-02-21T01:29:02;101156.56;;;31.57;67.76
23223;BME280;11780;13.904;100.620;2024-02-21T01:31:32;101164.88;;;31.57;67.70
23223;BME280;11780;13.904;100.620;2024-02-21T01:34:03;101164.06;;;31.57;68.02
23223;BME280;11780;13.904;100.620;2024-02-21T01:36:34;101166.22;;;31.60;67.75
23223;BME280;11780;13.904;100.620;2024-02-21T01:39:04;101177.56;;;31.58;67.90
23223;BME280;11780;13.904;100.620;2024-02-21T01:41:35;101176.78;;;31.58;67.61
23223;BME280;11780;13.904;100.620;2024-02-21T01:44:05;101180.34;;;31.58;67.53
23223;BME280;11780;13.904;100.620;2024-02-21T01:46:36;101184.72;;;31.59;67.45
23223;BME280;11780;13.904;100.620;2024-02-21T01:49:07;101181.63;;;31.61;67.33
23223;BME280;11780;13.904;100.620;2024-02-21T01:51:38;101181.00;;;31.64;67.31
23223;BME280;11780;13.904;100.620;2024-02-21T01:54:10;101182.47;;;31.62;66.99
23223;BME280;11780;13.904;100.620;2024-02-21T01:56:43;101192.41;;;31.63;66.84
23223;BME280;11780;13.904;100.620;2024-02-21T01:59:15;101194.03;;;31.64;66.87
23223;BME280;11780;13.904;100.620;2024-02-21T02:01:46;101206.91;;;31.68;66.96
23223;BME280;11780;13.904;100.620;2024-02-21T02:04:18;101200.56;;;31.68;66.83
23223;BME280;11780;13.904;100.620;2024-02-21T02:06:50;101209.66;;;31.68;66.87
23223;BME280;11780;13.904;100.620;2024-02-21T02:09:22;101203.19;;;31.73;66.32
23223;BME280;11780;13.904;100.620;2024-02-21T02:11:53;101212.81;;;31.76;65.95
23223;BME280;11780;13.904;100.620;2024-02-21T02:14:25;101216.41;;;31.76;66.03
23223;BME280;11780;13.904;100.620;2024-02-21T02:16:56;101213.00;;;31.79;65.80
23223;BME280;11780;13.904;100.620;2024-02-21T02:19:26;101223.56;;;31.77;65.92
23223;BME280;11780;13.904;100.620;2024-02-21T02:22:04;101226.00;;;31.79;66.05
23223;BME280;11780;13.904;100.620;2024-02-21T02:24:39;101224.56;;;31.81;65.52
23223;BME280;11780;13.904;100.620;2024-02-21T02:27:10;101237.44;;;31.86;65.74
23223;BME280;11780;13.904;100.620;2024-02-21T02:29:40;101245.22;;;31.84;65.62
23223;BME280;11780;13.904;100.620;2024-02-21T02:32:26;101243.28;;;31.84;66.02
23223;BME280;11780;13.904;100.620;2024-02-21T02:35:12;101247.66;;;31.85;65.45
23223;BME280;11780;13.904;100.620;2024-02-21T02:37:58;101254.84;;;31.86;65.44
23223;BME280;11780;13.904;100.620;2024-02-21T02:40:44;101257.13;;;31.84;65.89
23223;BME280;11780;13.904;100.620;2024-02-21T02:43:30;101248.50;;;31.86;65.92
23223;BME280;11780;13.904;100.620;2024-02-21T02:46:16;101250.94;;;31.87;65.17
23223;BME280;11780;13.904;100.620;2024-02-21T02:49:02;101253.19;;;31.85;65.45
23223;BME280;11780;13.904;100.620;2024-02-21T02:51:47;101264.75;;;31.87;65.41
23223;BME280;11780;13.904;100.620;2024-02-21T02:54:33;101260.19;;;31.83;65.47
23223;BME280;11780;13.904;100.620;2024-02-21T02:57:18;101258.72;;;31.85;65.73
23223;BME280;11780;13.904;100.620;2024-02-21T03:00:05;101258.25;;;31.83;65.76
23223;BME280;11780;13.904;100.620;2024-02-21T03:02:52;101271.75;;;31.85;65.14
23223;BME280;11780;13.904;100.620;2024-02-21T03:05:37;101269.63;;;31.82;65.54
23223;BME280;11780;13.904;100.620;2024-02-21T03:08:23;101267.19;;;31.80;64.91
23223;BME280;11780;13.904;100.620;2024-02-21T03:10:53;101258.72;;;31.85;64.33
23223;BME280;11780;13.904;100.620;2024-02-21T03:13:24;101263.97;;;31.87;64.45
23223;BME280;11780;13.904;100.620;2024-02-21T03:15:54;101265.28;;;31.89;64.43
23223;BME280;11780;13.904;100.620;2024-02-21T03:18:28;101265.13;;;31.95;63.93
23223;BME280;11780;13.904;100.620;2024-02-21T03:20:58;101271.47;;;31.95;64.16
23223;BME280;11780;13.904;100.620;2024-02-21T03:23:29;101269.22;;;31.97;63.73
23223;BME280;11780;13.904;100.620;2024-02-21T03:26:00;101266.94;;;31.99;63.44
23223;BME280;11780;13.904;100.620;2024-02-21T03:28:30;101258.00;;;32.02;63.51
23223;BME280;11780;13.904;100.620;2024-02-21T03:31:01;101257.69;;;32.04;63.49
23223;BME280;11780;13.904;100.620;2024-02-21T03:33:31;101260.44;;;32.04;63.14
23223;BME280;11780;13.904;100.620;2024-02-21T03:36:02;101260.94;;;32.06;63.15
23223;BME280;11780;13.904;100.620;2024-02-21T03:38:33;101255.91;;;32.08;63.19
23223;BME280;11780;13.904;100.620;2024-02-21T03:41:03;101256.72;;;32.09;63.26
23223;BME280;11780;13.904;100.620;2024-02-21T03:43:34;101251.19;;;32.09;62.83
23223;BME280;11780;13.904;100.620;2024-02-21T03:46:05;101254.78;;;32.09;63.00
23223;BME280;11780;13.904;100.620;2024-02-21T03:48:37;101247.78;;;32.12;62.66
23223;BME280;11780;13.904;100.620;2024-02-21T03:51:07;101253.00;;;32.13;62.81
23223;BME280;11780;13.904;100.620;2024-02-21T03:53:38;101243.06;;;32.12;62.54
23223;BME280;11780;13.904;100.620;2024-02-21T03:56:08;101246.81;;;32.16;62.46
23223;BME280;11780;13.904;100.620;2024-02-21T03:58:39;101247.31;;;32.18;62.09
23223;BME280;11780;13.904;100.620;2024-02-21T04:01:09;101243.91;;;32.22;62.17
23223;BME280;11780;13.904;100.620;2024-02-21T04:03:40;101241.63;;;32.24;62.08
23223;BME280;11780;13.904;100.620;2024-02-21T04:06:11;101222.78;;;32.26;62.13
23223;BME280;11780;13.904;100.620;2024-02-21T04:08:41;101236.00;;;32.29;62.20
23223;BME280;11780;13.904;100.620;2024-02-21T04:11:12;101226.06;;;32.28;62.01
23223;BME280;11780;13.904;100.620;2024-02-21T04:13:43;101227.69;;;32.29;62.06
23223;BME280;11780;13.904;100.620;2024-02-21T04:16:14;101221.00;;;32.30;62.01
23223;BME280;11780;13.904;100.620;2024-02-21T04:18:45;101227.69;;;32.29;61.88
23223;BME280;11780;13.904;100.620;2024-02-21T04:21:17;101223.78;;;32.30;62.20
23223;BME280;11780;13.904;100.620;2024-02-21T04:23:47;101221.47;;;32.32;62.10
23223;BME280;11780;13.904;100.620;2024-02-21T04:26:17;101212.03;;;32.33;62.14
23223;BME280;11780;13.904;100.620;2024-02-21T04:28:48;101214.81;;;32.33;61.96
23223;BME280;11780;13.904;100.620;2024-02-21T04:31:19;101209.75;;;32.35;61.79
23223;BME280;11780;13.904;100.620;2024-02-21T04:33:49;101197.56;;;32.36;61.86
23223;BME280;11780;13.904;100.620;2024-02-21T04:36:20;101204.72;;;32.37;61.81
23223;BME280;11780;13.904;100.620;2024-02-21T04:38:51;101198.53;;;32.40;61.73
23223;BME280;11780;13.904;100.620;2024-02-21T04:41:21;101198.22;;;32.42;61.89
23223;BME280;11780;13.904;100.620;2024-02-21T04:43:52;101197.06;;;32.43;61.68
23223;BME280;11780;13.904;100.620;2024-02-21T04:46:23;101192.03;;;32.45;61.64
23223;BME280;11780;13.904;100.620;2024-02-21T04:48:53;101190.91;;;32.46;61.69
23223;BME280;11780;13.904;100.620;2024-02-21T04:51:24;101186.00;;;32.52;61.29
23223;BME280;11780;13.904;100.620;2024-02-21T04:53:55;101173.31;;;32.50;61.33
23223;BME280;11780;13.904;100.620;2024-02-21T04:56:25;101163.84;;;32.52;61.31
23223;BME280;11780;13.904;100.620;2024-02-21T04:58:56;101165.50;;;32.53;61.43
23223;BME280;11780;13.904;100.620;2024-02-21T05:01:28;101173.78;;;32.53;61.56
23223;BME280;11780;13.904;100.620;2024-02-21T05:03:59;101157.34;;;32.56;61.26
23223;BME280;11780;13.904;100.620;2024-02-21T05:06:30;101160.94;;;32.57;61.12
23223;BME280;11780;13.904;100.620;2024-02-21T05:09:01;101156.69;;;32.59;60.95
23223;BME280;11780;13.904;100.620;2024-02-21T05:11:31;101147.25;;;32.60;60.82
23223;BME280;11780;13.904;100.620;2024-02-21T05:14:02;101144.97;;;32.62;60.86
23223;BME280;11780;13.904;100.620;2024-02-21T05:16:34;101138.63;;;32.62;60.82
23223;BME280;11780;13.904;100.620;2024-02-21T05:19:04;101135.53;;;32.63;60.57
23223;BME280;11780;13.904;100.620;2024-02-21T05:21:35;101129.34;;;32.67;60.59
23223;BME280;11780;13.904;100.620;2024-02-21T05:24:06;101125.72;;;32.66;60.59
23223;BME280;11780;13.904;100.620;2024-02-21T05:26:36;101124.09;;;32.65;60.56
23223;BME280;11780;13.904;100.620;2024-02-21T05:29:07;101126.88;;;32.65;60.51
23223;BME280;11780;13.904;100.620;2024-02-21T05:34:24;101109.13;;;32.66;60.54
23223;BME280;11780;13.904;100.620;2024-02-21T05:36:56;101114.00;;;32.69;60.62
23223;BME280;11780;13.904;100.620;2024-02-21T05:39:28;101108.94;;;32.71;60.41
23223;BME280;11780;13.904;100.620;2024-02-21T05:41:59;101101.28;;;32.68;60.41
23223;BME280;11780;13.904;100.620;2024-02-21T05:44:29;101091.19;;;32.72;60.22
23223;BME280;11780;13.904;100.620;2024-02-21T05:47:00;101087.59;;;32.72;60.28
23223;BME280;11780;13.904;100.620;2024-02-21T05:49:30;101094.44;;;32.74;60.22
23223;BME280;11780;13.904;100.620;2024-02-21T05:52:01;101085.66;;;32.72;60.50
23223;BME280;11780;13.904;100.620;2024-02-21T05:54:31;101073.91;;;32.75;60.28
23223;BME280;11780;13.904;100.620;2024-02-21T05:57:02;101071.16;;;32.75;60.52
23223;BME280;11780;13.904;100.620;2024-02-21T05:59:33;101070.81;;;32.77;60.55
23223;BME280;11780;13.904;100.620;2024-02-21T06:02:05;101074.59;;;32.81;60.48
23223;BME280;11780;13.904;100.620;2024-02-21T06:04:35;101062.38;;;32.82;60.38
23223;BME280;11780;13.904;100.620;2024-02-21T06:07:06;101056.47;;;32.84;60.30
23223;BME280;11780;13.904;100.620;2024-02-21T06:09:37;101064.78;;;32.84;60.28
23223;BME280;11780;13.904;100.620;2024-02-21T06:12:08;101054.69;;;32.88;60.14
23223;BME280;11780;13.904;100.620;2024-02-21T06:14:39;101055.81;;;32.87;60.04
23223;BME280;11780;13.904;100.620;2024-02-21T06:17:09;101052.72;;;32.88;59.88
23223;BME280;11780;13.904;100.620;2024-02-21T06:19:41;101049.28;;;32.91;59.93
23223;BME280;11780;13.904;100.620;2024-02-21T06:22:13;101037.41;;;32.91;59.90
23223;BME280;11780;13.904;100.620;2024-02-21T06:24:43;101029.09;;;32.91;59.79
23223;BME280;11780;13.904;100.620;2024-02-21T06:27:14;101032.34;;;32.93;59.65
23223;BME280;11780;13.904;100.620;2024-02-21T06:29:46;101027.59;;;32.93;59.77
23223;BME280;11780;13.904;100.620;2024-02-21T06:32:16;101024.84;;;32.93;59.55
23223;BME280;11780;13.904;100.620;2024-02-21T06:34:47;101019.66;;;32.92;59.55
23223;BME280;11780;13.904;100.620;2024-02-21T06:37:17;101016.03;;;32.91;59.42
23223;BME280;11780;13.904;100.620;2024-02-21T06:39:48;101009.69;;;32.91;59.27
23223;BME280;11780;13.904;100.620;2024-02-21T06:42:19;101006.25;;;32.94;59.20
23223;BME280;11780;13.904;100.620;2024-02-21T06:44:49;101003.81;;;32.92;59.03
23223;BME280;11780;13.904;100.620;2024-02-21T06:47:20;100988.81;;;32.93;58.94
23223;BME280;11780;13.904;100.620;2024-02-21T06:49:51;100994.84;;;32.95;58.87
23223;BME280;11780;13.904;100.620;2024-02-21T06:52:21;100991.25;;;32.95;58.75
23223;BME280;11780;13.904;100.620;2024-02-21T06:54:53;100983.75;;;32.95;58.62
23223;BME280;11780;13.904;100.620;2024-02-21T06:57:24;100986.06;;;32.93;58.73
23223;BME280;11780;13.904;100.620;2024-02-21T06:59:54;100980.50;;;32.93;58.61
23223;BME280;11780;13.904;100.620;2024-02-21T07:02:25;100978.69;;;32.98;58.51
23223;BME280;11780;13.904;100.620;2024-02-21T07:04:56;100964.84;;;32.98;58.26
23223;BME280;11780;13.904;100.620;2024-02-21T07:07:26;100967.28;;;32.99;58.11
23223;BME280;11780;13.904;100.620;2024-02-21T07:09:57;100968.09;;;33.00;57.87
23223;BME280;11780;13.904;100.620;2024-02-21T07:12:27;100945.94;;;33.00;57.59
23223;BME280;11780;13.904;100.620;2024-02-21T07:14:58;100947.09;;;32.99;57.66
23223;BME280;11780;13.904;100.620;2024-02-21T07:17:31;100937.94;;;32.98;57.61
23223;BME280;11780;13.904;100.620;2024-02-21T07:20:02;100935.16;;;32.98;57.55
23223;BME280;11780;13.904;100.620;2024-02-21T07:22:32;100939.09;;;32.97;57.08
23223;BME280;11780;13.904;100.620;2024-02-21T07:25:04;100924.75;;;32.95;57.19
23223;BME280;11780;13.904;100.620;2024-02-21T07:27:34;100931.44;;;32.94;57.24
23223;BME280;11780;13.904;100.620;2024-02-21T07:30:06;100912.53;;;32.96;57.28
23223;BME280;11780;13.904;100.620;2024-02-21T07:32:39;100917.75;;;32.98;57.35
23223;BME280;11780;13.904;100.620;2024-02-21T07:35:10;100919.69;;;32.97;57.09
23223;BME280;11780;13.904;100.620;2024-02-21T07:37:41;100919.69;;;32.97;57.20
23223;BME280;11780;13.904;100.620;2024-02-21T07:40:16;100914.97;;;32.98;56.97
23223;BME280;11780;13.904;100.620;2024-02-21T07:42:48;100911.72;;;32.95;57.13
23223;BME280;11780;13.904;100.620;2024-02-21T07:45:19;100909.44;;;32.98;56.95
23223;BME280;11780;13.904;100.620;2024-02-21T07:47:53;100904.56;;;32.94;57.07
23223;BME280;11780;13.904;100.620;2024-02-21T07:50:24;100904.22;;;32.96;56.80
23223;BME280;11780;13.904;100.620;2024-02-21T07:52:55;100906.50;;;32.94;56.28
23223;BME280;11780;13.904;100.620;2024-02-21T07:55:26;100906.97;;;32.96;56.37
23223;BME280;11780;13.904;100.620;2024-02-21T07:57:56;100894.25;;;32.95;56.13
23223;BME280;11780;13.904;100.620;2024-02-21T08:00:27;100893.94;;;32.97;55.91
23223;BME280;11780;13.904;100.620;2024-02-21T08:03:01;100887.25;;;32.98;56.03
23223;BME280;11780;13.904;100.620;2024-02-21T08:05:34;100887.25;;;32.98;55.85
23223;BME280;11780;13.904;100.620;2024-02-21T08:08:05;100887.25;;;32.98;55.60
23223;BME280;11780;13.904;100.620;2024-02-21T08:10:39;100878.94;;;32.98;55.68
23223;BME280;11780;13.904;100.620;2024-02-21T08:13:10;100884.16;;;32.99;55.46
23223;BME280;11780;13.904;100.620;2024-02-21T08:15:41;100880.91;;;32.97;55.51
23223;BME280;11780;13.904;100.620;2024-02-21T08:18:12;100881.72;;;32.98;55.34
23223;BME280;11780;13.904;100.620;2024-02-21T08:20:42;100876.19;;;32.98;55.32
23223;BME280;11780;13.904;100.620;2024-02-21T08:23:15;100875.34;;;32.97;55.29
23223;BME280;11780;13.904;100.620;2024-02-21T08:25:45;100871.78;;;32.97;55.32
23223;BME280;11780;13.904;100.620;2024-02-21T08:28:16;100872.25;;;32.99;55.49
23223;BME280;11780;13.904;100.620;2024-02-21T08:30:46;100857.25;;;33.00;55.58
23223;BME280;11780;13.904;100.620;2024-02-21T08:33:17;100860.34;;;32.98;55.72
23223;BME280;11780;13.904;100.620;2024-02-21T08:35:48;100859.06;;;32.95;55.64
23223;BME280;11780;13.904;100.620;2024-02-21T08:38:19;100849.94;;;32.95;55.80
23223;BME280;11780;13.904;100.620;2024-02-21T08:40:49;100857.09;;;32.96;55.35
23223;BME280;11780;13.904;100.620;2024-02-21T08:43:20;100850.75;;;32.95;55.04
23223;BME280;11780;13.904;100.620;2024-02-21T08:45:50;100845.22;;;32.95;54.69
23223;BME280;11780;13.904;100.620;2024-02-21T08:48:21;100848.00;;;32.95;54.35
23223;BME280;11780;13.904;100.620;2024-02-21T08:50:53;100839.19;;;32.93;54.04
23223;BME280;11780;13.904;100.620;2024-02-21T08:53:24;100837.22;;;32.94;54.00
23223;BME280;11780;13.904;100.620;2024-02-21T08:55:54;100833.31;;;32.95;53.91
23223;BME280;11780;13.904;100.620;2024-02-21T08:58:25;100832.16;;;32.96;53.86
23223;BME280;11780;13.904;100.620;2024-02-21T09:00:56;100834.47;;;32.94;53.71
23223;BME280;11780;13.904;100.620;2024-02-21T09:03:27;100835.28;;;32.94;53.76
23223;BME280;11780;13.904;100.620;2024-02-21T09:05:57;100837.56;;;32.92;53.47
23223;BME280;11780;13.904;100.620;2024-02-21T09:08:29;100839.19;;;32.93;53.49
23223;BME280;11780;13.904;100.620;2024-02-21T09:11:02;100835.28;;;32.94;53.46
23223;BME280;11780;13.904;100.620;2024-02-21T09:13:33;100830.88;;;32.93;53.48
23223;BME280;11780;13.904;100.620;2024-02-21T09:16:04;100838.84;;;32.95;53.49
23223;BME280;11780;13.904;100.620;2024-02-21T09:18:34;100827.31;;;32.93;53.32
23223;BME280;11780;13.904;100.620;2024-02-21T09:21:05;100828.13;;;32.93;53.14
23223;BME280;11780;13.904;100.620;2024-02-21T09:23:35;100835.63;;;32.93;53.44
23223;BME280;11780;13.904;100.620;2024-02-21T09:26:05;100831.69;;;32.94;53.14
23223;BME280;11780;13.904;100.620;2024-02-21T09:28:36;100836.09;;;32.95;53.25
23223;BME280;11780;13.904;100.620;2024-02-21T09:31:07;100830.88;;;32.93;53.40
23223;BME280;11780;13.904;100.620;2024-02-21T09:33:37;100833.66;;;32.93;53.26
23223;BME280;11780;13.904;100.620;2024-02-21T09:36:36;100835.63;;;32.93;53.48
23223;BME280;11780;13.904;100.620;2024-02-21T09:39:08;100841.97;;;32.93;53.32
23223;BME280;11780;13.904;100.620;2024-02-21T09:41:50;100843.13;;;32.92;53.28
23223;BME280;11780;13.904;100.620;2024-02-21T09:44:29;100839.19;;;32.93;52.70
23223;BME280;11780;13.904;100.620;2024-02-21T09:47:03;100849.47;;;32.93;52.66
23223;BME280;11780;13.904;100.620;2024-02-21T09:49:35;100848.00;;;32.95;52.63
23223;BME280;11780;13.904;100.620;2024-02-21T09:52:10;100850.75;;;32.95;52.46
23223;BME280;11780;13.904;100.620;2024-02-21T09:54:43;100844.88;;;32.97;52.61
23223;BME280;11780;13.904;100.620;2024-02-21T09:57:15;100845.22;;;32.95;52.72
23223;BME280;11780;13.904;100.620;2024-02-21T09:59:46;100855.47;;;32.95;52.45
23223;BME280;11780;13.904;100.620;2024-02-21T10:02:16;100861.84;;;32.95;52.43
23223;BME280;11780;13.904;100.620;2024-02-21T10:04:47;100856.31;;;32.95;52.51
23223;BME280;11780;13.904;100.620;2024-02-21T10:07:18;100859.88;;;32.96;52.46
23223;BME280;11780;13.904;100.620;2024-02-21T10:10:03;100859.56;;;32.98;52.34
23223;BME280;11780;13.904;100.620;2024-02-21T10:12:34;100864.28;;;32.97;52.19
23223;BME280;11780;13.904;100.620;2024-02-21T10:15:05;100866.56;;;32.95;52.20
23223;BME280;11780;13.904;100.620;2024-02-21T10:17:36;100861.50;;;32.97;52.24
23223;BME280;11780;13.904;100.620;2024-02-21T10:20:10;100869.34;;;32.95;52.38
23223;BME280;11780;13.904;100.620;2024-02-21T10:22:40;100857.09;;;32.96;52.39
23223;BME280;11780;13.904;100.620;2024-02-21T10:25:12;100863.00;;;32.94;52.74
23223;BME280;11780;13.904;100.620;2024-02-21T10:27:43;100871.31;;;32.94;52.68
23223;BME280;11780;13.904;100.620;2024-02-21T10:30:14;100876.84;;;32.94;52.65
23223;BME280;11780;13.904;100.620;2024-02-21T10:32:54;100874.88;;;32.95;52.79
23223;BME280;11780;13.904;100.620;2024-02-21T10:35:29;100869.19;;;32.91;52.87
23223;BME280;11780;13.904;100.620;2024-02-21T10:38:00;100871.97;;;32.91;52.90
23223;BME280;11780;13.904;100.620;2024-02-21T10:40:30;100875.09;;;32.90;52.64
23223;BME280;11780;13.904;100.620;2024-02-21T10:43:01;100876.72;;;32.91;52.60
23223;BME280;11780;13.904;100.620;2024-02-21T10:45:37;100889.41;;;32.92;52.58
23223;BME280;11780;13.904;100.620;2024-02-21T10:48:13;100880.63;;;32.90;52.55
23223;BME280;11780;13.904;100.620;2024-02-21T10:51:03;100886.16;;;32.90;52.45
23223;BME280;11780;13.904;100.620;2024-02-21T10:56:46;100883.41;;;32.90;52.99
23223;BME280;11780;13.904;100.620;2024-02-21T10:59:19;100887.78;;;32.91;53.07
23223;BME280;11780;13.904;100.620;2024-02-21T11:01:50;100891.72;;;32.90;53.46
23223;BME280;11780;13.904;100.620;2024-02-21T11:04:26;100905.56;;;32.90;53.58
23223;BME280;11780;13.904;100.620;2024-02-21T11:07:00;100899.84;;;32.86;53.82
23223;BME280;11780;13.904;100.620;2024-02-21T11:09:36;100913.03;;;32.89;53.97
23223;BME280;11780;13.904;100.620;2024-02-21T11:12:07;100912.25;;;32.89;54.67
23223;BME280;11780;13.904;100.620;2024-02-21T11:14:38;100912.91;;;32.86;54.70
23223;BME280;11780;13.904;100.620;2024-02-21T11:17:19;100916.34;;;32.83;54.60
23223;BME280;11780;13.904;100.620;2024-02-21T11:19:51;100925.00;;;32.81;55.60
23223;BME280;11780;13.904;100.620;2024-02-21T11:22:29;100922.50;;;32.79;55.70
23223;BME280;11780;13.904;100.620;2024-02-21T11:25:21;100927.25;;;32.79;56.58
23223;BME280;11780;13.904;100.620;2024-02-21T11:28:03;100934.72;;;32.78;56.93
23223;BME280;11780;13.904;100.620;2024-02-21T11:30:36;100935.91;;;32.77;57.00
23223;BME280;11780;13.904;100.620;2024-02-21T11:33:07;100936.09;;;32.72;57.12
23223;BME280;11780;13.904;100.620;2024-02-21T11:35:38;100935.25;;;32.72;57.17
23223;BME280;11780;13.904;100.620;2024-02-21T11:38:09;100938.03;;;32.72;57.22
23223;BME280;11780;13.904;100.620;2024-02-21T11:40:45;100937.88;;;32.68;57.41
23223;BME280;11780;13.904;100.620;2024-02-21T11:43:16;100949.44;;;32.70;57.60
23223;BME280;11780;13.904;100.620;2024-02-21T11:45:46;100944.25;;;32.69;57.46
23223;BME280;11780;13.904;100.620;2024-02-21T11:48:17;100948.47;;;32.66;57.25
23223;BME280;11780;13.904;100.620;2024-02-21T11:50:56;100954.00;;;32.66;56.72
23223;BME280;11780;13.904;100.620;2024-02-21T11:53:27;100949.31;;;32.67;56.59
23223;BME280;11780;13.904;100.620;2024-02-21T11:56:05;100957.13;;;32.64;56.64
23223;BME280;11780;13.904;100.620;2024-02-21T11:58:35;100953.06;;;32.62;56.80
23223;BME280;11780;13.904;100.620;2024-02-21T12:01:05;100959.75;;;32.61;56.67
23223;BME280;11780;13.904;100.620;2024-02-21T12:03:37;100958.63;;;32.62;56.75
23223;BME280;11780;13.904;100.620;2024-02-21T12:06:07;100962.03;;;32.59;56.77
23223;BME280;11780;13.904;100.620;2024-02-21T12:08:42;100967.09;;;32.57;56.60
23223;BME280;11780;13.904;100.620;2024-02-21T12:11:23;100976.19;;;32.57;56.51
23223;BME280;11780;13.904;100.620;2024-02-21T12:14:01;100983.69;;;32.57;56.68
23223;BME280;11780;13.904;100.620;2024-02-21T12:16:33;100981.25;;;32.55;56.63
23223;BME280;11780;13.904;100.620;2024-02-21T12:19:04;100982.72;;;32.53;56.65
23223;BME280;11780;13.904;100.620;2024-02-21T12:21:35;100989.91;;;32.54;56.75
23223;BME280;11780;13.904;100.620;2024-02-21T12:26:44;100993.00;;;32.52;57.30
23223;BME280;11780;13.904;100.620;2024-02-21T12:29:14;100994.63;;;32.53;57.61
23223;BME280;11780;13.904;100.620;2024-02-21T12:31:45;101000.63;;;32.55;57.94
23223;BME280;11780;13.904;100.620;2024-02-21T12:34:16;100999.50;;;32.56;58.21
23223;BME280;11780;13.904;100.620;2024-02-21T12:37:01;101002.59;;;32.55;58.07
23223;BME280;11780;13.904;100.620;2024-02-21T12:39:33;101010.41;;;32.53;58.50
23223;BME280;11780;13.904;100.620;2024-02-21T12:42:04;100995.44;;;32.54;58.85
23223;BME280;11780;13.904;100.620;2024-02-21T12:44:34;101004.41;;;32.50;58.95
23223;BME280;11780;13.904;100.620;2024-02-21T12:47:04;101011.25;;;32.53;58.85
23223;BME280;11780;13.904;100.620;2024-02-21T12:49:35;101012.69;;;32.50;59.02
23223;BME280;11780;13.904;100.620;2024-02-21T12:52:11;101019.72;;;32.48;58.88
23223;BME280;11780;13.904;100.620;2024-02-21T12:54:41;101024.44;;;32.47;59.07
23223;BME280;11780;13.904;100.620;2024-02-21T12:57:12;101029.16;;;32.47;59.12
23223;BME280;11780;13.904;100.620;2024-02-21T12:59:42;101038.63;;;32.46;59.18
23223;BME280;11780;13.904;100.620;2024-02-21T13:02:12;101034.56;;;32.43;59.38
23223;BME280;11780;13.904;100.620;2024-02-21T13:04:45;101035.84;;;32.46;59.40